Create Custom Reports and Graphics: Custom Report

North Region Latest Observations

Map

10 Minute Data

Winnemucca/Elko Latest Observations

Map

10 Minute Data

South Region Latest Observations

Map

10 Minute Data

Latest Observation

114 Stations

10 Minute Data
as of 9/4/26 6:32 PM PDT
Station Date Time Temp (°F) RH (%) Dew Pt (°F) Wind Spd (mph) Wind Dir (°) Wind Gust (mph) Wind Gst Dir (°) Latest Rain (In) Soil Moist (%) Soil Temp (°F) Daily Rain (In) Daily Min Temp (°F) Daily Max Temp (°F) Daily Max Wind (mph)
Hobart Mills 9/4/26 1830 51.7   2.8 70   8 42.4   0.2 4.3   1.9 SW | 227 10.3   1.1 SSW | 206 0.00 7.5   0.1 61.9   1.9 0.07 46.9   1.8 57.4   0.4 16.8   3.7
Prosser Dam 9/4/26 1830 53.2   0.9 69   3 43.4   2.0 5.6   0.6 WNW | 282 9.4   5.1 WNW | 291 0.00 5.2   0.0 60.3   0.9 0.16 48.1   2.0 60.0   0.5 20.2   1.2
West Incline Village 9/4/26 1830 48.9   1.5 70   5 39.7   0.3 2.8   2.1 SSW | 207 12.5   0.8 S | 186 0.00 11.6   0.1 56.1   0.8 0.07 43.7   0.8 50.7   1.5 21.6   2.4
Incline Village (Fairview Blvd) 9/4/26 1830 51.6   2.5 66   9 40.6   0.7 2.9   0.9 WSW | 240 11.9   0.6 WSW | 249 0.00 7.6   0.0 68.2   1.5 0.00 45.6   0.8 58.0   3.9 18.5   3.0
Incline Village (Diamond Peak) 9/4/26 1830 48.2   1.7 73   8 39.9   0.9 2.5   3.1 NW | 314 3.5   7.2 NW | 307 0.00 2.5   0.0 56.7   1.8 0.01 44.0   0.4 50.8   0.1 12.9   2.2
Incline Village (Mill Creek) 9/4/26 1830 54.0   2.7 66   7 42.8   0.2 2.8   1.4 WSW | 248 9.1   4.7 NW | 312 0.00 2.9   0.0 60.9   0.7 0.00 48.8   0.6 55.5   1.4 18.9   0.0
Incline Village (Lakeshore Blvd) 9/4/26 1830 54.3   0.4 68   8 44.0   2.6 4.0   3.6 WSW | 240 8.6   4.4 WSW | 243 0.00 22.4   2.3 61.3   0.0 0.00 51.0   0.5 57.2   0.4 17.0   0.1
Glenbrook 9/4/26 1830 55.2   0.1 62   4 42.5   1.8 6.0   5.5 SW | 234 12.0   5.6 WSW | 245 0.00 43.4   0.2 58.3   0.1 0.00 51.7   0.1 57.8   0.0 26.3   2.5
Zephyr Cove 9/4/26 1830 54.4   0.5 57   2 39.6   0.4 1.0   0.7 SSE | 159 4.1   1.4 SSE | 155 0.00 2.9   0.1 65.6   2.3 0.00 49.9   2.1 60.4   1.6 12.5   0.6
Kingsbury Grade 9/4/26 1830 52.9   0.2 60   1 39.6   0.2 2.5   0.4 W | 270 8.9   0.8 NW | 316 0.00 2.3   0.1 63.6   2.0 0.00 47.5   3.3 58.0   2.0 18.4   1.4
South Daggett Pass (Ridge) 9/4/26 1830 49.9   1.1 66   2 39.1   0.2 2.0   1.3 WNW | 284 9.1   6.1 WSW | 244 0.00 2.2   0.0 61.2   0.7 0.00 44.0   3.4 55.0   0.6 18.4   7.0
Palomino Valley 9/4/26 1830 66.1   1.3 39   4 40.2   1.5 9.7   0.2 WSW | 241 19.9   2.7 SW | 233 0.00 6.6   0.0 74.8   0.4 0.00 54.1   2.5 70.8   1.3 34.6   1.4
East Cold Springs 9/4/26 1830 58.1   2.4 50   6 39.8   0.6 8.1   7.8 WSW | 257 13.8   11.8 WSW | 254 0.00 1.5   0.0 70.1   0.0 0.01 50.6   1.3 64.0   2.1 27.1   3.6
Peavine 9/4/26 1830 56.0   2.4 52   5 38.8   0.1 29.1   5.6 WSW | 250 40.4   5.0 SW | 236 0.00 4.3   0.0 67.3   2.5 0.05 50.0   1.2 60.8   1.3 40.4   6.5
West Verdi Peak 9/4/26 1930 53.1   4.0 64   9 41.1   0.5 2.4   2.1 W | 262 10.8   1.1 WNW | 298 0.00 6.5   0.1 66.0   1.4 0.22 46.6   1.3 57.9   0.7 19.9   1.9
West Verdi 9/4/26 1830 58.5   2.4 56   5 42.7   0.0 6.1   2.4 WSW | 257 13.2   5.6 WNW | 294 0.00 6.1   0.0 76.1   2.3 0.08 52.2   2.6 63.6   0.6 27.8   8.7
South Verdi 9/4/26 1830 57.4   1.4 56   1 41.9   1.0 6.7   17.8 W | 259 12.9   21.9 SW | 230 0.00 10.1   0.3 69.3   3.1 0.03 51.5   1.9 62.1   0.2 35.4   6.8
Northwest Reno 9/4/26 1830 59.3   0.6 53   0 42.1   0.6 33.6   12.4 W | 261 43.1   8.8 W | 265 0.00 24.5   0.1 73.2   1.7 0.00 54.3   0.8 63.6   1.9 45.1   5.5
North Lawton 8/28/26 1620 63.8   17.1 74   52 55.4   16.5 1.5   11.6 ESE | 121 5.1   19.0 SE | 124 0.00 - 78.2   0.0 0.05 59.2   7.5 71.9   13.3 20.4   4.6
West Reno (Mogul) 9/4/26 1830 60.0   1.3 53   0 42.6   1.1 9.5   2.1 SW | 236 18.5   3.9 SW | 225 0.00 19.4   0.1 76.7   0.4 0.00 53.2   2.1 65.0   1.3 30.8   1.4
Caughlin (Hunter Lake Trail) 9/4/26 1800 60.7   1.1 46   4 39.9   1.3 22.1   11.0 WSW | 257 35.5   12.3 W | 267 0.00 16.2   0.1 70.7   1.3 0.00 52.6   2.4 64.3   1.0 35.5   7.3
ArrowCreek 9/4/26 1830 62.0   1.5 41   9 37.8   4.0 5.4   7.6 SW | 219 17.9   5.7 WSW | 244 0.00 - 32.0   0.0 0.00 56.1   2.9 65.3   1.5 30.7   7.2
Tracy 9/4/26 1830 68.6   1.9 38   5 42.0   1.6 12.4   3.1 WNW | 282 20.2   3.6 NW | 322 0.00 15.6   0.1 76.4   0.8 0.00 62.2   3.9 71.8   1.3 35.9   4.2
Virginia Highlands 9/4/26 1830 57.1   0.9 56   4 41.3   1.1 11.6   6.7 SW | 236 24.1   12.2 WSW | 251 0.00 7.8   0.1 72.0   0.2 0.00 53.4   4.2 62.2   1.4 34.9   4.3
Virginia City 9/4/26 1830 57.0   0.3 49   3 38.1   1.2 9.4   4.5 SW | 221 18.0   7.7 SW | 224 0.00 4.7   0.0 71.4   0.3 0.00 52.8   3.0 61.9   1.9 34.8   4.8
Six Mile Canyon 9/4/26 1830 67.4   0.5 32   4 36.9   2.8 14.0   1.3 WSW | 252 21.9   0.7 SW | 232 0.00 12.3   0.0 76.3   0.3 0.00 61.9   7.4 72.1   1.4 35.6   0.1
Mt Rose Highway 9/4/26 1830 50.3   1.9 63   10 38.1   1.8 3.8   1.1 S | 186 10.3   6.7 SSW | 195 0.00 7.4   0.0 59.5   1.0 0.03 44.9   1.5 56.2   0.1 31.3   2.7
Pleasant Valley 9/4/26 1830 62.4   1.3 46   6 41.3   1.7 15.6   0.7 SW | 234 25.1   2.4 SW | 227 0.00 2.3   0.1 74.0   1.8 0.00 56.6   0.5 66.4   1.2 30.2   6.7
New Washoe City 9/4/26 1830 60.2   0.1 53   1 42.9   0.3 9.6   2.6 WSW | 239 15.8   5.5 SW | 227 0.00 3.4   0.1 70.8   0.6 0.00 57.6   4.8 65.6   1.3 33.0   3.5
Franktown Creek 9/4/26 1830 60.2   0.4 53   3 43.1   1.0 2.7   3.6 SSW | 212 8.7   9.6 S | 177 0.00 7.1   0.1 69.9   0.7 0.00 55.1   1.0 64.9   1.8 25.5   7.4
Musgrove Creek 9/4/26 1830 58.1   0.6 57   2 42.9   0.3 2.0   0.0 N | 11 7.0   1.0 NE | 53 0.00 10.2   0.1 59.8   0.2 0.01 51.9   1.1 63.3   0.6 18.5   4.1
East Carson 11/23/24 0110 28.6   28.4 - - 4.7   11.0 SW | 220 14.7   10.1 SW | 219 0.02 - 50.9   0.1 0.02 -25.9   79.1 42.9   14.6 16.0   10.7
Kings Canyon 9/4/26 1830 60.8   0.0 45   3 39.6   1.6 5.9   0.0 SW | 226 11.0   6.0 SW | 228 0.00 4.2   0.1 67.6   0.8 0.00 57.1   3.0 63.9   1.8 26.0   3.5
Carson City (Voltaire Canyon) 9/4/26 1830 62.7   0.3 41   5 38.6   2.6 15.9   2.6 SW | 220 25.3   3.2 SSW | 211 0.00 2.8   0.1 76.5   0.7 0.00 58.8   5.5 66.0   3.0 40.4   0.9
Jacks Valley 9/4/26 1830 61.6   0.1 43   3 38.7   1.7 9.2   5.0 W | 263 15.8   9.6 SW | 235 0.00 4.6   0.0 76.3   3.3 0.00 57.7   3.4 67.2   0.7 33.7   5.7
Genoa 9/4/26 1830 63.4   0.2 46   0 42.1   0.3 1.8   0.6 WSW | 238 8.4   1.7 W | 270 0.00 2.3   0.1 70.6   5.1 0.00 59.7   4.3 68.6   2.4 13.9   5.1
South Genoa (Walleys Hot Springs) 9/4/26 1830 65.2   0.5 42   1 41.5   0.0 8.7   0.6 WSW | 253 15.9   3.6 WSW | 258 0.00 4.7   0.0 73.2   0.4 0.00 60.5   12.1 67.9   2.7 25.0   4.8
SW Gardnerville (HWY 88) 9/4/26 1830 63.2   1.3 43   3 40.6   0.5 15.3   3.8 S | 179 21.9   7.2 SSE | 152 0.00 2.8   0.0 67.7   0.1 0.00 59.6   13.6 67.0   3.9 31.9   4.5
Sheridan 9/4/26 1830 64.0   0.7 40   1 39.6   0.1 9.0   0.7 ESE | 122 18.6   0.2 SSE | 152 0.00 1.1   0.0 70.9   1.3 0.00 59.2   10.1 67.8   5.0 24.6   2.1
Ruhenstroth 9/4/26 1830 63.4   0.1 41   1 39.2   0.7 13.8   4.0 SSW | 209 23.4   4.7 SSW | 202 0.00 6.9   0.1 75.3   2.8 0.00 58.7   4.5 68.2   1.8 31.7   4.1
Double Spring 9/4/26 1830 60.7   0.2 43   2 38.0   1.2 13.0   9.2 W | 274 21.1   13.4 W | 273 0.00 25.2   0.0 76.7   2.2 0.00 54.7   16.0 66.4   0.2 32.8   5.7
North Topaz Lake 9/4/26 1830 63.1   0.3 40   4 38.5   2.0 10.7   3.0 WSW | 252 18.3   3.1 SW | 236 0.00 7.9   0.0 80.8   0.7 0.00 58.5   4.0 70.8   0.4 30.9   2.0
Wild Oat Mountain 9/4/26 1830 62.3   1.8 38   8 36.4   3.5 20.1   12.2 WSW | 239 33.7   17.1 WSW | 255 0.00 5.8   0.1 76.2   0.4 0.00 56.5   4.5 68.3   0.3 42.5   10.8
Smith Valley 9/4/26 1830 67.9   1.2 35   3 39.2   1.2 24.2   13.6 WSW | 250 36.9   8.6 WSW | 247 0.00 2.9   0.0 79.9   0.8 0.00 62.6   5.4 76.5   0.3 41.2   9.8
Pine Grove Mountain 9/4/26 1830 57.5   2.0 42   5 34.4   0.9 8.6   3.6 W | 260 13.3   9.4 W | 264 0.00 6.8   0.1 68.5   0.4 0.00 45.6   0.4 62.9   0.6 26.6   4.2
Paradise Hill 9/4/26 1830 64.2   4.5 46   12 43.3   3.5 19.6   2.1 WNW | 296 30.9   7.0 WNW | 286 0.00 9.8   0.1 75.2   0.3 0.00 53.1   2.7 66.6   6.0 36.3   5.7
Winnemucca 9/4/26 1830 64.7   4.8 47   14 44.2   5.0 7.4   3.7 WNW | 289 16.2   2.4 WSW | 255 0.00 5.6   0.0 73.2   0.2 0.00 52.1   2.9 68.1   5.8 22.5   2.9
NE Elko 9/4/26 1830 74.7   2.1 24   7 36.0   7.3 9.8   4.7 WNW | 292 14.9   6.1 W | 268 0.00 5.7   0.0 75.8   0.6 0.00 44.9   7.3 79.0   0.1 28.4   2.7
North Elko 9/4/26 1830 73.4   1.4 26   7 36.3   6.1 12.3   2.3 W | 279 21.2   6.1 W | 281 0.00 24.6   0.1 73.0   0.4 0.00 53.7   0.2 76.8   0.1 22.1   4.3
South Elko 9/4/26 1830 70.2   2.3 28   7 35.9   5.6 13.7   4.7 WNW | 296 20.6   3.5 WNW | 294 0.00 13.7   0.0 73.1   0.3 0.00 53.2   0.4 110.0 22.2   5.7
Lamoille 9/4/26 1830 72.7   0.4 26   6 35.9   7.2 6.3   1.6 WNW | 300 9.8   3.7 WNW | 295 0.00 6.2   0.0 69.9   0.5 0.00 46.6   6.3 77.3   2.7 21.9   4.5
Reid Gardner Sub 9/4/26 1830 95.6   0.5 12   1 35.7   3.3 11.0   0.8 SSE | 156 18.6   0.6 S | 172 0.00 24.6   0.1 89.1   0.6 0.00 59.8   4.6 97.7   0.3 35.2   9.2
Corn Creek 9/4/26 1830 87.8   0.7 17   2 37.5   3.0 14.6   8.7 ESE | 104 20.1   14.0 ESE | 104 0.00 3.1   0.1 91.4   0.0 0.00 70.3   1.7 91.9   0.5 40.0   1.1
Lucky Strike 9/4/26 1830 74.1   2.2 20   6 30.7   7.5 9.4   1.5 S | 176 19.2   5.6 S | 184 0.00 3.2   0.0 86.1   1.8 0.00 62.9   0.3 78.6   2.4 38.9   7.7
Lower Angel Peak 9/4/26 1830 68.8   0.9 25   7 31.9   7.1 9.7   1.4 SE | 146 17.1   3.0 SSE | 163 0.00 3.2   0.0 74.0   0.0 0.00 55.9   2.2 75.1   1.1 27.1   4.2
Angel Peak 9/4/26 1830 56.7   1.0 34   11 28.9   8.3 21.7   9.0 S | 182 27.7   8.7 S | 177 0.00 2.6   0.1 71.4   0.3 0.00 54.4   0.6 64.8   0.2 41.9   13.5
Upper Kyle Canyon 9/4/26 1830 60.9   0.0 30   5 29.6   4.8 3.5   2.7 E | 82 8.3   9.6 ENE | 69 0.00 7.7   0.0 74.7   0.1 0.00 56.6   1.1 67.7   1.8 29.1   3.7
Mt Charleston 9/4/26 1830 61.8   0.1 30   4 29.9   3.9 4.4   0.4 E | 82 14.9   2.7 E | 100 0.00 13.2   0.1 67.2   0.6 0.00 56.2   1.8 67.5   1.4 28.7   1.9
Mid Kyle Canyon 9/4/26 1830 69.2   0.3 25   4 31.6   4.6 7.3   4.5 SSW | 208 15.9   3.7 SW | 219 0.00 5.8   0.0 75.2   0.1 0.00 64.0   7.4 75.2   1.3 35.0   3.0
Blue Diamond 9/4/26 1830 85.3   0.7 17   2 35.9   3.3 12.2   0.3 W | 278 22.6   2.0 W | 280 0.00 1.3   0.0 90.5   0.7 0.00 70.7   3.8 89.7   2.3 27.8   2.2
Artesian Sub 9/4/26 1830 96.4   1.3 12   0 36.1   1.5 5.3   1.0 SSW | 196 12.2   1.1 S | 191 0.00 11.6   0.0 92.1   0.4 0.00 78.1   1.2 100.2   1.5 19.9   3.4
North Henderson 9/4/26 1830 97.3   1.1 12   1 36.5   2.4 8.6   1.1 SW | 218 15.0   2.1 SW | 214 0.00 10.5   0.0 95.3   0.5 0.00 79.1   1.3 99.8   0.6 33.4   5.7
Sandy Valley 9/4/26 1830 88.4   0.8 18   2 39.3   3.0 6.1   4.3 SW | 230 12.3   3.1 WSW | 258 0.00 7.6   0.2 92.8   0.1 0.00 68.4   0.6 90.7   1.3 24.2   1.7
Searchlight 9/4/26 1830 85.8   0.8 17   2 36.4   4.5 9.9   4.0 SSW | 199 14.8   3.8 SSW | 196 0.00 5.7   0.1 88.3   0.9 0.00 64.8   0.6 88.4   0.3 31.0   4.7
Laughlin 9/4/26 1830 101.6   0.9 10   0 34.2   0.9 13.3   1.6 SSE | 154 19.8   2.1 SSE | 158 0.00 4.4   0.1 99.0   0.7 0.00 78.8   1.4 103.4   1.8 32.9   6.0
31Mission Hills 9/4/26 1830 91.7   1.8 11   1 28.9   1.2 9.3   3.6 SSW | 192 20.0   4.7 S | 187 0.00 6.6   0.2 94.4   0.5 0.00 73.8   0.4 94.2   0.5 38.5   6.0
32 Enterprise Sierra Cliffs 9/4/26 1830 87.4   1.0 13   1 30.6   2.1 12.0   2.8 SW | 226 17.1   6.5 SW | 221 0.00 1.5   0.0 94.3   1.6 0.00 69.6   3.2 91.1   1.3 24.1   6.6
29 Calico Basin 9/4/26 1830 83.7   0.5 15   2 30.5   3.5 13.9   0.2 SSW | 213 20.1   2.1 SW | 220 0.00 2.4   0.0 86.9   0.4 0.00 68.3   0.6 87.6   1.5 26.7   2.9
28 Indian Springs 9/4/26 1830 87.3   0.7 15   4 33.3   6.7 11.9   6.7 SW | 219 21.0   6.6 SSW | 210 0.00 4.4   0.2 86.5   1.6 0.00 65.0   3.4 92.9   0.8 29.9   3.1
30 Jean 9/4/26 1830 87.8   0.6 13   1 30.4   3.4 11.6   1.0 WSW | 246 17.4   0.4 WSW | 256 0.00 5.1   0.1 92.4   0.2 0.00 67.3   1.8 91.8   2.1 29.1   0.1
VC Highlands NW 9/4/26 1830 55.9   1.5 53   6 39.2   1.2 6.9   2.8 WSW | 241 18.3   6.8 WNW | 284 0.00 1.6   0.1 67.7   2.7 0.00 51.2   2.5 61.6   1.4 27.1   1.9
Glenbrook-Spooner Summit 9/4/26 1830 51.6   1.2 58   4 37.2   0.8 4.8   4.1 W | 270 11.6   12.0 WSW | 239 0.00 7.8   0.0 68.6   0.6 0.00 46.7   0.4 55.5   1.2 23.8   5.8
Hobo Hot Springs 9/4/26 1830 64.2   0.0 38   3 37.9   1.8 8.5   3.3 SW | 235 20.4   6.7 SSW | 198 0.00 1.1   0.0 70.6   0.7 0.00 59.8   10.2 70.0   0.9 27.2   10.8
Jack Valley Ranch 2 9/4/26 1830 61.3   0.3 42   4 37.9   2.0 8.0   1.5 W | 260 17.9   3.1 WSW | 250 0.00 2.1   0.0 72.4   1.3 0.00 57.0   2.9 67.0   0.8 26.3   3.9
Genoa North 2 9/4/26 1830 62.6   0.2 42   0 39.0   0.5 7.3   2.5 SW | 229 16.5   8.2 WSW | 248 0.00 0.8   0.1 72.9   3.2 0.00 58.3   4.8 68.5   1.5 23.7   10.3
Mottsville 2 9/4/26 1830 63.9   0.5 40   1 39.0   0.1 3.5   4.0 SSE | 163 8.7   13.7 ESE | 116 0.00 1.3   0.0 70.4   1.0 0.00 59.1   9.6 68.3   2.9 28.4   3.7
Kingsbury Village 3 9/4/26 1830 47.6   0.2 66   1 36.9   0.2 2.0   0.0 NNW | 347 6.2   0.5 WNW | 294 0.00 3.2   0.1 59.6   2.5 0.00 43.2   2.8 52.9   2.8 15.5   0.9
Kingsbury-Benjamin Dr 2 9/4/26 1830 50.2   0.3 62   1 37.6   0.0 1.3   2.1 W | 281 6.2   10.8 SW | 225 0.00 2.9   0.1 65.1   4.0 0.00 44.9   3.0 55.6   2.7 16.5   8.4
Smith Valley-Wellington 9/4/26 1830 67.7   0.9 32   3 36.4   1.8 16.2   6.5 WSW | 242 28.8   7.7 WSW | 254 0.00 3.5   0.0 79.9   0.3 0.00 60.7   3.3 75.2   0.5 36.9   5.8
Sheridan South 2 9/4/26 1830 63.6   0.5 39   0 38.2   0.2 6.8   3.1 SSE | 162 17.8   4.6 SE | 138 0.00 0.4   0.0 71.3   2.7 0.00 58.7   11.4 65.8   5.0 28.1   0.9
Silver Springs 9/4/26 1830 70.6   0.7 29   4 36.8   3.0 23.8   6.9 WSW | 254 34.6   7.0 WSW | 244 0.00 5.0   0.0 77.1   1.3 0.00 62.9   8.7 74.9   1.2 42.5   0.0
Fernley 9/4/26 1830 69.6   0.6 30   2 36.6   2.5 14.1   3.3 NNW | 340 21.9   5.2 NW | 324 0.00 3.2   0.0 79.7   1.2 0.00 59.3   5.4 74.6   0.9 36.6   3.9
Spanish Springs 9/4/26 1830 65.2   1.9 39   4 39.7   0.9 10.6   3.3 W | 264 18.3   2.9 W | 280 0.00 10.2   0.1 76.4   0.2 0.00 57.6   0.1 70.2   0.1 26.2   0.7
Suttcliffe South 2 9/4/26 1830 65.8   1.2 40   0 41.0   1.0 14.6   7.8 W | 279 21.5   13.9 W | 270 0.00 4.2   0.0 76.4   1.8 0.00 53.4   3.2 72.3   1.2 35.0   7.6
Lemmon Valley North 9/4/26 1830 61.2   2.2 42   7 37.9   2.0 9.4   0.3 SSW | 201 18.1   2.7 SSW | 197 0.00 2.0   0.0 69.6   0.3 0.02 52.2   3.3 65.5   1.1 29.7   2.7
Lemmon Valley NW 3 9/4/26 1830 61.0   1.6 44   4 39.1   1.0 11.7   3.3 W | 265 22.8   0.1 WNW | 285 0.00 1.3   0.0 79.2   1.7 0.00 53.7   0.8 66.0   2.7 31.3   0.9
VC Highlands North 9/4/26 1830 57.6   1.5 50   6 39.4   1.3 9.2   2.4 SW | 225 19.4   6.5 WSW | 245 0.00 5.0   0.1 80.1   0.6 0.00 53.2   3.0 62.6   0.9 27.4   2.6
Upper Voltaire Cyn 9/4/26 1830 58.4   0.1 44   5 36.5   2.5 11.4   0.4 SSW | 209 22.2   1.4 SSW | 203 0.00 1.2   0.0 67.4   2.8 0.00 54.7   1.2 60.8   3.3 35.9   2.4
Yerington NW 9/4/26 1830 69.6   0.5 32   2 38.2   1.0 17.2   9.2 W | 275 24.8   11.2 W | 271 0.00 7.3   0.1 76.2   0.4 0.00 60.1   10.7 75.3   0.1 32.9   8.8
Spanish Springs SW 9/4/26 1830 63.9   2.1 40   4 39.3   0.5 9.9   3.3 W | 263 17.1   4.2 WSW | 256 0.00 1.5   0.1 79.0   0.8 0.00 57.3   0.9 69.0   1.4 27.0   8.2
Cosgrave 2 8/27/26 0750 62.9   4.1 34   3 33.8   1.4 2.6   0.5 WSW | 246 4.1   1.0 W | 267 0.00 3.8   0.1 77.4   2.9 0.00 62.7   3.3 77.4   3.5 11.2   3.9
Winnemucca-Grass Valley 2 9/4/26 1830 63.7   7.0 48   20 43.7   7.7 15.2   1.7 NNW | 343 20.5   1.0 NNW | 343 0.00 7.8   0.1 70.6   0.5 0.00 48.6   0.4 69.3   5.1 26.6   2.9
Winnemucca-Dutch Flat Rd 9/4/26 1830 63.8   4.8 45   14 42.2   5.5 14.8   7.1 NW | 310 27.3   14.4 NW | 309 0.00 6.2   0.0 75.0   1.0 0.00 50.8   3.4 67.9   6.7 29.4   1.4
Paradise Valley 2 9/4/26 1830 64.1   3.9 41   12 40.1   5.4 13.6   10.6 NW | 324 19.8   12.8 NW | 313 0.00 12.5   0.0 74.9   2.4 0.00 48.4   3.9 70.5   2.0 27.4   3.2
Golconda 2 9/4/26 1830 62.9   8.0 50   24 44.0   9.2 16.5   4.3 NNW | 331 24.0   7.6 NNW | 337 0.00 1.9   0.1 77.9   3.2 0.00 50.8   2.3 69.6   5.5 29.6   3.8
Battle Mountain - South 9/4/26 1830 67.4   9.3 40   23 42.5   13.5 19.6   10.3 NW | 319 27.1   12.5 NNW | 328 0.00 9.3   0.0 76.4   1.1 0.00 50.9   1.2 77.2   1.4 30.6   3.5
Geiger Summit 9/4/26 1830 54.2   1.4 100   0 54.2   1.4 6.3   1.1 WSW | 244 18.3   7.7 WSW | 248 0.00 6.4   0.0 69.0   0.6 0.00 50.2   3.3 59.6   1.3 30.4   4.7
Combs Canyon 3 9/4/26 1830 62.3   0.0 41   3 38.1   1.5 7.0   2.8 WSW | 240 13.4   5.1 SW | 233 0.00 1.1   0.1 77.5   1.1 0.00 58.7   4.5 68.4   1.3 27.0   2.0
Clear Creek 9/4/26 1830 59.1   0.4 44   4 37.2   2.0 6.2   3.3 SSW | 203 12.7   8.1 SW | 223 0.00 3.4   0.0 67.2   2.3 0.00 55.0   1.8 61.5   3.4 29.7   1.5
Eastlake 2 9/4/26 1830 61.4   0.5 47   3 41.2   1.2 5.7   0.2 SW | 229 9.8   7.1 S | 173 0.00 3.4   0.0 71.4   0.3 0.00 58.0   3.4 67.6   0.6 29.2   1.0
Lovelock-Colado 2 9/4/26 1830 68.1   3.8 43   12 44.5   5.4 12.6   7.5 NNE | 16 19.1   9.2 NNE | 22 0.00 - 76.3   0.5 0.00 45.5   8.6 74.3   3.1 20.9   4.1
Spanish Springs NW 9/4/26 1830 64.3   0.2 42   0 40.6   0.0 9.5   2.5 W | 281 20.9   7.5 WNW | 300 0.00 12.3   0.0 69.8   0.0 0.00 58.4   1.2 70.2   1.7 25.7   5.2
Battle Mountain NW 9/4/26 1830 66.2   9.1 44   25 43.5   13.8 17.3   5.2 WNW | 298 25.0   6.0 NW | 304 0.00 8.7   0.1 75.6   0.9 0.00 54.5   2.2 72.8   5.6 25.0   9.2
Austin 2 9/4/26 1730 69.0   2.2 25   8 32.0   7.3 9.8   1.6 W | 271 15.8   0.9 W | 269 0.00 2.7   0.1 78.0   4.7 0.00 37.6   0.8 74.2   0.8 24.7   12.4
Elko-Osino 9/4/26 1830 74.4   3.7 23   7 34.0   6.2 10.4   0.5 NNW | 341 14.3   1.1 NNW | 337 0.00 1.7   0.1 80.7   0.9 0.00 44.2   7.9 79.3   0.7 23.2   4.1
Elko-Bill Fishpond 2 9/4/26 1830 75.3   2.0 21   3 32.6   5.4 4.2   2.9 WNW | 303 7.9   3.5 NW | 307 0.00 3.6   0.0 71.9   0.5 0.00 48.4   3.3 78.4   1.5 17.9   9.6
Spring Creek SE 2 9/4/26 1830 74.0   0.2 23   7 33.7   9.1 11.0   2.7 WNW | 293 15.9   4.5 WNW | 295 0.00 0.3   0.0 70.7   0.1 0.00 44.2   7.1 78.3   1.2 28.4   1.0
Spring Creek NW 9/4/26 1830 73.2   1.9 24   7 34.3   7.4 9.7   2.6 WNW | 287 15.3   2.0 WNW | 300 0.00 2.2   0.0 73.3   0.4 0.00 49.2   2.6 78.1   1.4 23.5   1.0
Elko-Moleen 9/4/26 1830 74.4   2.1 24   6 35.0   6.0 10.6   3.1 WNW | 301 18.1   3.5 NW | 318 0.00 6.3   0.0 78.0   0.5 0.00 43.6   3.6 79.4   0.1 21.5   4.0
Elko-West 9/4/26 1830 75.3   2.3 23   6 34.8   5.8 11.1   1.4 W | 279 16.2   2.5 W | 280 0.00 33.7   0.4 68.5   0.3 0.00 41.6   3.9 80.3   0.9 27.1   2.6
Elko-Adobe Creek 9/4/26 1830 66.8   1.9 29   9 33.7   7.4 12.4   3.7 NNW | 330 19.0   6.6 NNW | 331 0.00 18.6   0.1 69.2   0.5 0.00 48.6   0.2 72.4   1.9 24.3   10.1
Tuscarora SW 9/4/26 1830 63.1   6.6 42   21 39.7   11.7 15.3   7.4 NNW | 348 21.7   9.2 NNW | 342 0.00 6.8   0.1 71.0   1.2 0.00 42.7   4.5 70.0   2.7 25.2   5.8
Elko-Monument Peak 9/4/26 1830 67.8   2.7 29   9 34.8   7.2 14.9   5.5 NNW | 340 21.7   7.5 NNW | 338 0.00 4.1   0.1 72.2   0.5 0.00 38.0   6.2 74.3   1.9 23.6   5.8
Wild Horse 9/4/26 1830 57.6   10.2 50   27 39.0   11.1 15.6   6.4 NNE | 17 23.7   10.3 NNE | 20 0.00 4.6   0.0 66.8   0.5 0.00 49.2   1.5 67.7   1.9 26.0   3.7
Max     101.6 100 54.2 33.6 - 43.1 - 0.00 43.4 99.0 0.22 79.1 110.0 45.1
Avg     65.5 41 38.3 10.3 - 17.9 - 0.00 7.0 73.5 - - - -
Min     47.6 10 28.9 1.0 - 3.5 - 0.00 0.3 32.0 0.00 37.6 50.7 12.5

Latest Observation

114 Stations

Daily Data
as of 9/4/26 6:32 PM PDT
Station Date Daily Max Temp (°F) Daily Min Temp (°F) Daily Max RH (%) Daily Min RH (%) Wind Spd (mph) Wind Dir (°) Daily Max Wind (mph) Max Wind Dir (°) Time of Max Wind Daily Rain (In) Weekly Precip (In) Season Precip (In) Soil Moist (%) Fuel Temp (°F) Fuel Moisture (%) MinBV Day (V)
Hobart Mills 9/3/26 57.0   4.8 47.7   3.1 93   26 49   12 3.1   0.0 SSW | 212 20.5   0.9 SW | 234 1645 0.03 0.06 - 7.5   0.0 52.3   0.2 11   3 12.5   0.0
Prosser Dam 9/3/26 59.5   2.2 50.1   8.6 82   10 42   5 5.0   0.9 S | 189 22.0   7.6 SE | 145 2121 0.00 0.09 - 5.2   0.1 54.6   1.6 9   1 12.6   0.0
West Incline Village 9/3/26 52.2   1.8 44.5   4.1 83   8 31   15 4.0   0.4 SW | 215 24.0   2.9 S | 171 0034 0.00 0.26 - 11.7   0.0 49.4   0.7 8   1 12.4   0.0
Incline Village (Fairview Blvd) 9/3/26 54.1   3.4 46.4   3.6 79   9 34   8 2.8   0.0 WSW | 248 21.5   0.2 SW | 227 1723 0.00 0.33 - 7.6   0.0 52.5   2.1 8   1 12.6   0.0
Incline Village (Diamond Peak) 9/3/26 50.7   2.9 43.6   3.4 82   7 37   10 5.2   0.9 NW | 312 15.2   0.4 WNW | 296 1256 0.00 0.03 - 2.5   0.0 -11.7   0.0 - 12.4   0.0
Incline Village (Mill Creek) 9/3/26 57.0   1.6 49.4   4.0 75   6 32   10 3.5   0.1 WSW | 247 18.9   0.1 WNW | 291 0820 0.00 0.33 - 2.9   0.0 -8.7   0.0 - 12.5   0.0
Incline Village (Lakeshore Blvd) 9/3/26 56.8   0.4 50.5   3.0 84   9 32   18 5.6   0.1 WSW | 240 19.5   1.0 SSW | 212 2229 0.00 0.30 - 25.3   3.0 54.3   1.3 11   1 12.4   0.0
Glenbrook 9/3/26 57.8   1.3 51.5   2.8 71   2 38   1 9.0   1.1 WSW | 237 26.8   0.6 WSW | 253 2333 0.00 0.30 - 43.2   0.1 54.8   0.1 15   0 12.6   0.0
Zephyr Cove 9/3/26 58.7   2.6 47.8   2.6 65   1 31   3 1.0   0.0 SE | 141 13.2   1.5 SW | 222 1033 0.00 0.32 - 2.8   0.0 54.0   1.0 8   1 12.6   0.0
Kingsbury Grade 9/3/26 60.1   0.5 44.2   2.8 69   5 32   0 2.3   0.1 W | 267 17.0   3.5 WSW | 249 1205 0.00 0.28 - 2.3   0.0 54.8   2.5 8   1 12.5   0.0
South Daggett Pass (Ridge) 9/3/26 55.6   0.1 40.6   2.1 76   5 36   1 3.0   0.3 WNW | 282 25.3   3.0 W | 265 1409 0.00 0.29 - 2.2   0.0 48.6   0.3 9   1 12.5   0.0
Palomino Valley 9/3/26 72.1   2.8 51.7   2.4 52   5 28   6 10.1   2.0 SW | 222 33.3   0.1 WSW | 237 1516 0.00 0.03 - 6.6   0.1 64.6   4.3 7   1 12.5   0.0
East Cold Springs 9/3/26 66.1   0.1 51.9   5.3 78   21 37   8 11.5   1.0 WSW | 242 30.7   0.2 SW | 230 1407 0.00 0.00 - 1.5   0.0 60.9   4.0 7   1 12.6   0.0
Peavine 9/3/26 62.1   0.7 51.1   0.1 74   29 30   4 20.6   3.0 SW | 228 46.8   5.3 WSW | 247 0115 0.01 0.01 - 4.3   0.0 57.4   3.0 6   2 13.0   0.0
West Verdi Peak 9/3/26 58.6   1.5 47.2   4.4 88   21 44   9 3.8   0.5 S | 174 24.0   2.2 ESE | 114 0057 0.04 0.06 - 6.5   0.1 53.0   0.5 9   3 12.6   0.0
West Verdi 9/3/26 64.2   1.3 53.8   3.7 75   22 32   2 7.8   0.2 S | 191 36.5   1.1 S | 180 1428 0.01 0.07 - 6.2   0.0 60.3   0.1 5   2 12.6   0.0
South Verdi 9/3/26 61.9   2.0 52.8   3.7 71   17 25   5 21.0   2.4 SW | 224 44.8   0.1 SW | 218 2035 0.00 0.08 - 10.3   0.1 58.8   1.4 6   1 12.6   0.0
Northwest Reno 9/3/26 65.5   0.2 55.2   3.2 69   16 32   5 23.6   0.1 WSW | 244 50.6   2.6 W | 260 0127 0.00 0.05 - 24.7   0.3 -17.8   0.0 - 12.6   0.0
North Lawton 8/27/26 85.2   2.6 66.7   6.0 35   16 18   2 8.9   1.0 SW | 230 25.0   2.4 SW | 236 1526 0.00 0.00 - - - - 12.6   0.0
West Reno (Mogul) 9/3/26 66.3   1.5 55.1   4.0 70   19 28   0 8.0   2.1 WSW | 258 32.2   1.1 WSW | 241 1100 0.00 0.00 - 19.5   0.1 64.5   5.5 2   0 12.6   0.0
Caughlin (Hunter Lake Trail) 9/3/26 65.2   0.4 55.0   5.0 66   15 31   7 10.2   2.3 SW | 216 42.8   3.2 SW | 220 1417 0.00 0.12 - 16.3   0.2 61.7   3.6 7   0 12.6   0.0
ArrowCreek 9/3/26 86.2   19.6 -2.1   52.6 70   21 3   17 11.8   5.1 S | 175 37.9   2.4 S | 170 1332 0.01 0.15 - - - - 11.0   1.4
Tracy 9/3/26 73.1   1.2 58.3   2.1 47   6 27   8 10.5   0.1 WSW | 256 31.7   2.4 WSW | 253 1530 0.00 0.09 - 15.7   0.2 67.5   4.0 6   0 12.7   0.0
Virginia Highlands 9/3/26 63.6   3.5 49.2   0.5 64   6 35   1 6.3   2.0 SW | 228 30.6   6.0 WSW | 243 1614 0.00 0.12 - 7.9   0.1 59.4   6.5 7   1 12.5   0.0
Virginia City 9/3/26 63.8   3.5 49.9   2.6 54   3 34   8 12.9   4.4 S | 191 39.6   9.2 SSW | 198 1428 0.00 0.12 - 4.7   0.0 59.8   5.7 6   1 12.6   0.0
Six Mile Canyon 9/3/26 73.5   3.4 54.5   0.1 41   2 25   7 11.4   2.4 WSW | 246 35.5   9.7 WSW | 241 1617 0.00 0.10 - 12.1   0.1 67.8   5.9 4   1 12.7   0.0
Mt Rose Highway 9/3/26 56.0   0.7 44.7   1.6 84   19 29   5 5.9   0.6 S | 189 35.3   0.1 SW | 232 2128 0.03 0.26 - 7.4   0.0 52.7   1.2 9   3 12.5   0.0
Pleasant Valley 9/3/26 67.6   1.3 56.1   1.6 54   6 28   1 13.8   2.3 SSW | 210 36.9   2.1 SW | 235 1350 0.00 0.14 - 2.3   0.0 66.7   4.6 8   0 12.6   0.0
New Washoe City 9/3/26 66.9   1.0 52.8   0.5 56   3 32   2 9.5   0.7 SW | 215 29.6   2.1 WSW | 240 1228 0.00 0.08 - 3.5   0.0 60.7   2.1 8   1 12.6   0.0
Franktown Creek 9/3/26 66.7   1.0 56.1   2.4 59   5 28   2 5.5   0.7 SSW | 204 32.9   3.6 S | 188 0810 0.00 0.14 - 7.0   0.0 62.2   2.2 8   0 12.6   0.0
Musgrove Creek 9/3/26 63.9   0.6 50.8   1.3 62   1 31   4 2.4   0.4 NW | 309 22.6   1.0 NE | 40 1051 0.00 0.21 - 10.2   0.0 60.3   3.3 8   1 12.5   0.0
East Carson 11/22/24 63.8   0.3 41.7   4.6 85   21 21   9 14.9   6.0 SW | 224 46.6   12.7 S | 171 1835 0.05 0.05 4.48 2.5   0.0 53.9   0.3 9   0 12.6   0.0
Kings Canyon 9/3/26 65.7   0.0 54.1   3.1 50   1 30   1 5.0   0.2 S | 181 29.4   1.4 SSW | 197 1038 0.00 0.13 - 4.1   0.0 60.0   0.8 5   1 12.6   0.0
Carson City (Voltaire Canyon) 9/3/26 68.9   0.8 53.3   0.4 50   4 27   3 16.1   2.1 SSW | 200 41.2   8.4 S | 188 1751 0.00 0.00 - 2.8   0.0 -10.9   0.0 - 12.6   0.0
Jacks Valley 9/3/26 67.9   0.6 54.3   2.0 50   3 27   7 11.4   1.5 WSW | 240 39.4   3.3 SW | 232 0945 0.00 0.24 - 4.6   0.0 63.7   2.4 3   0 12.6   0.0
Genoa 9/3/26 71.0   0.2 55.3   2.4 50   3 25   2 2.2   0.8 SSW | 204 19.0   2.7 S | 180 1034 0.00 0.15 - 2.3   0.0 63.4   2.5 8   1 12.4   0.0
South Genoa (Walleys Hot Springs) 9/3/26 70.6   0.3 48.4   5.8 57   8 24   4 6.9   0.9 SW | 218 29.8   1.9 SSW | 203 1329 0.00 0.13 - 4.9   0.0 66.3   0.0 6   1 12.6   0.0
SW Gardnerville (HWY 88) 9/3/26 70.8   0.6 46.1   5.7 65   14 29   7 11.2   2.5 SSE | 152 36.4   6.1 S | 174 1624 0.00 0.03 - 2.8   0.0 61.4   0.4 8   1 9.0   0.5
Sheridan 9/3/26 72.7   1.4 49.0   1.8 49   2 28   9 6.6   1.8 SSE | 148 28.2   1.1 ESE | 116 2314 0.00 0.05 - 1.1   0.0 63.6   1.5 3   1 12.5   0.0
Ruhenstroth 9/3/26 70.0   0.9 54.3   0.1 47   3 21   1 14.8   1.8 S | 186 35.8   4.5 S | 176 1809 0.00 0.06 - 6.8   0.0 64.5   1.8 6   1 12.6   0.0
Double Spring 9/3/26 66.6   1.7 38.7   0.2 66   6 31   10 6.4   0.3 W | 278 27.1   3.9 W | 275 1221 0.00 0.14 - 25.0   0.3 57.6   2.2 7   1 12.6   0.0
North Topaz Lake 9/3/26 71.2   2.1 54.5   1.8 49   8 27   6 8.0   1.1 SSW | 211 28.9   1.0 S | 182 1352 0.00 0.22 - 7.6   0.1 66.4   3.8 5   1 12.6   0.0
Wild Oat Mountain 9/3/26 68.7   1.0 52.0   2.2 51   11 24   3 10.9   0.7 SW | 220 31.7   2.2 SW | 230 1335 0.00 0.13 - 5.7   0.0 62.4   3.0 5   1 12.6   0.0
Smith Valley 9/3/26 76.2   3.3 57.2   3.4 42   11 21   4 8.2   0.7 SW | 221 31.4   0.7 SSW | 205 1751 0.00 0.12 - 2.8   0.0 70.5   3.4 6   1 12.6   0.0
Pine Grove Mountain 9/3/26 63.5   2.4 45.3   1.9 59   26 28   8 8.6   0.7 SSW | 200 30.8   2.1 WSW | 243 1617 0.00 0.07 - 6.7   0.2 58.2   4.0 4   1 12.6   0.0
Paradise Hill 9/3/26 72.6   5.0 55.8   1.6 52   9 26   10 9.9   5.6 WSW | 238 30.6   9.3 SW | 234 1346 0.00 0.02 - 9.9   0.2 67.2   4.9 5   1 12.6   0.0
Winnemucca 9/3/26 73.8   4.6 55.0   3.1 56   13 24   6 7.3   2.9 SSW | 208 25.3   8.0 WSW | 244 1811 0.00 0.02 - 5.7   0.1 66.4   2.7 5   1 12.6   0.0
NE Elko 9/3/26 78.8   7.7 52.2   0.1 36   7 17   1 6.5   1.8 SW | 236 25.7   1.2 SSW | 212 1224 0.00 0.02 - 5.7   0.0 68.8   3.1 3   0 12.6   0.0
North Elko 9/3/26 76.7   7.7 53.5   2.9 43   13 17   1 8.1   1.0 SW | 234 26.4   10.4 SSW | 200 1205 0.00 0.05 - 24.6   0.1 67.4   4.2 7   0 12.6   0.0
South Elko 9/3/26 - 53.6   2.6 100   15 18   2 7.3   0.6 SW | 219 28.0   3.5 WSW | 244 1505 0.00 0.02 - 13.6   0.1 65.5   5.5 5   1 12.5   0.0
Lamoille 9/3/26 74.6   4.6 52.9   1.3 44   8 18   4 10.1   1.9 SW | 219 26.3   1.6 SW | 222 1359 0.00 0.02 - 6.3   0.1 67.7   4.7 5   1 12.8   0.0
Reid Gardner Sub 9/3/26 97.4   0.5 64.4   9.5 34   16 11   5 5.8   4.2 S | 176 26.0   6.8 SE | 141 1237 0.00 0.00 - 24.8   0.5 86.2   1.5 1   0 12.6   0.0
Corn Creek 9/3/26 92.4   1.8 68.6   0.1 27   9 11   5 12.0   6.1 ESE | 108 41.1   15.6 ENE | 70 1347 0.00 0.00 - 3.1   0.0 81.5   2.5 1   0 12.5   0.0
Lucky Strike 9/3/26 81.0   1.0 62.6   0.9 26   8 9   4 7.5   1.1 SSW | 196 31.2   3.1 SE | 137 1327 0.00 0.00 - 3.1   0.0 73.1   0.9 1   0 12.6   0.0
Lower Angel Peak 9/3/26 76.2   1.2 53.6   0.1 29   10 14   7 6.4   0.8 SSE | 166 22.8   0.4 SE | 140 1553 0.00 0.00 - 3.1   0.0 66.8   0.1 1   0 12.6   0.0
Angel Peak 9/3/26 65.1   1.7 53.8   3.0 29   6 14   8 8.5   0.1 SSE | 166 29.3   15.9 WSW | 249 2348 0.00 0.00 - 2.4   0.1 61.0   0.5 3   0 12.5   0.0
Upper Kyle Canyon 9/3/26 69.5   1.4 57.6   1.3 28   8 14   8 7.0   1.0 NW | 309 35.9   0.6 WNW | 282 2114 0.00 0.00 - 7.7   0.0 70.5   3.4 3   0 12.6   0.0
Mt Charleston 9/3/26 68.9   1.1 58.0   2.0 30   9 14   6 6.6   0.5 WSW | 239 27.4   4.5 WNW | 283 1928 0.00 0.00 - 13.2   0.1 66.3   0.9 10   0 12.6   0.0
Mid Kyle Canyon 9/3/26 76.5   0.8 56.6   0.5 26   8 14   7 7.2   2.9 W | 262 32.0   1.2 WNW | 282 1152 0.00 0.00 - 5.8   0.0 71.1   0.7 4   0 12.7   0.0
Blue Diamond 9/3/26 87.4   0.4 66.9   0.1 29   10 14   7 7.8   2.1 WNW | 288 30.1   3.3 WNW | 298 1738 0.00 0.00 - 1.2   0.0 - - 12.6   0.0
Artesian Sub 9/3/26 98.7   1.0 76.9   0.7 22   7 11   5 6.1   0.9 SSE | 151 23.2   0.7 SE | 146 1307 0.00 0.00 - 11.7   0.0 - 0   0 12.6   0.0
North Henderson 9/3/26 99.2   1.4 77.8   2.6 24   8 10   3 7.5   2.9 S | 184 27.7   1.2 S | 179 1533 0.00 0.00 - 10.5   0.0 91.5   1.0 1   0 12.6   0.0
Sandy Valley 9/3/26 89.4   0.0 69.0   0.8 35   10 16   7 5.6   0.6 SSW | 194 22.5   1.6 SW | 228 1519 0.00 0.00 - 7.8   0.2 80.8   0.3 3   0 12.6   0.0
Searchlight 9/3/26 88.1   1.8 65.4   0.2 30   6 12   3 8.7   1.5 S | 185 26.3   0.9 SSE | 168 1440 0.00 0.00 - 5.8   0.1 79.6   1.4 1   0 12.5   0.0
Laughlin 9/3/26 101.6   1.7 77.4   3.1 27   16 10   0 6.8   0.7 S | 189 27.0   3.1 SSE | 155 1621 0.00 0.00 - 4.5 89.3   2.7 3   1 12.7   0.0
31Mission Hills 9/3/26 93.7   0.9 74.2   0.6 21   5 9   4 9.7   0.4 SSE | 166 32.5   0.6 S | 173 1458 0.00 0.00 - 6.7   0.3 85.9   1.2 3   0 13.2   0.0
32 Enterprise Sierra Cliffs 9/3/26 89.8   0.7 72.8   0.5 26   7 11   6 12.3   3.6 SSW | 202 30.7   5.7 SW | 227 1411 0.00 0.00 - 1.3   0.0 83.4   0.8 3   0 13.2   0.0
29 Calico Basin 9/3/26 86.1   0.4 67.7   1.5 23   7 12   7 10.5   6.3 SSW | 196 29.6   13.7 SSW | 204 1446 0.00 0.00 - 2.4   0.0 80.3   0.7 2   0 13.2   0.0
28 Indian Springs 9/3/26 92.1   1.3 61.6   1.2 22   5 9   5 5.7   2.5 W | 264 33.0   1.4 SW | 233 1802 0.00 0.00 - 4.5   0.1 80.1   0.4 3   0 13.2   0.0
30 Jean 9/3/26 89.7   0.3 65.5   1.9 29   8 11   5 10.8   2.7 SW | 226 28.9   7.3 WSW | 257 1609 0.00 0.00 - 5.0   0.1 81.1   0.7 2   0 13.1   0.0
VC Highlands NW 9/3/26 63.0   5.4 48.8   1.8 62   3 32   3 5.2   0.9 SW | 225 25.2   7.2 WSW | 242 1509 0.00 0.12 - 1.6   0.0 57.8   6.2 7   1 13.1   0.0
Glenbrook-Spooner Summit 9/3/26 56.7   0.5 46.4   4.9 66   3 33   2 8.2   0.1 W | 260 29.7   1.1 WSW | 237 1149 0.00 0.31 - 7.8   0.1 53.9   0.5 7   0 13.2   0.0
Hobo Hot Springs 9/3/26 70.9   0.7 49.6   1.1 52   3 24   4 10.1   1.4 SW | 222 38.0   3.9 SW | 222 1249 0.00 0.13 - 1.0   0.0 64.2   3.4 7   0 13.2   0.0
Jack Valley Ranch 2 9/3/26 67.8   0.7 54.1   2.5 51   4 24   6 6.0   0.2 SW | 220 30.2   5.1 WSW | 246 1257 0.00 0.23 - 2.1   0.0 64.1   2.8 6   1 13.2   0.0
Genoa North 2 9/3/26 70.0   0.5 53.5   0.2 48   1 23   1 6.0   0.4 SSW | 207 34.0   5.2 WSW | 238 1125 0.00 0.10 - 0.8   0.0 64.4   1.6 6   1 13.2   0.0
Mottsville 2 9/3/26 71.2   0.9 49.5   3.3 47   2 26   7 4.0   0.9 SSE | 162 24.7   12.2 S | 184 1138 0.00 0.18 - 1.3   0.0 62.4   1.0 7   0 13.2   0.0
Kingsbury Village 3 9/3/26 55.7   1.1 40.4   1.3 75   2 32   4 2.7   0.3 NW | 315 17.3   2.1 NNW | 339 0037 0.00 0.29 - 3.2   0.0 49.0   0.8 10   1 13.2   0.0
Kingsbury-Benjamin Dr 2 9/3/26 58.3   0.9 41.9   1.4 71   4 33   1 2.7   0.1 W | 259 25.0   1.7 SW | 219 1054 0.00 0.29 - 3.0   0.1 51.4   1.1 8   1 13.1   0.0
Smith Valley-Wellington 9/3/26 74.8   1.9 57.4   2.6 41   5 22   7 8.7   0.6 SW | 229 31.0   3.4 WNW | 290 1551 0.00 0.03 - 3.5   0.0 68.3   2.2 6   1 13.2   0.0
Sheridan South 2 9/3/26 70.9   0.5 47.3   1.2 52   7 26   7 7.6   1.4 SSE | 159 31.2   0.2 ESE | 121 2201 0.00 0.07 - 0.5   0.0 63.8   2.2 7   1 13.2   0.6
Silver Springs 9/3/26 76.1   1.7 54.2   0.1 39   5 22   5 15.2   2.0 WSW | 248 42.5   3.1 WSW | 243 1539 0.00 0.08 - 4.9   0.1 68.1   3.4 7   1 13.1   0.0
Fernley 9/3/26 75.5   1.6 54.0   0.8 42   3 22   5 9.5   0.8 WSW | 243 40.5   10.9 WNW | 288 1454 0.00 0.04 - 3.1   0.0 67.1   4.1 6   1 13.1   0.0
Spanish Springs 9/3/26 70.3   1.8 57.4   4.9 54   8 27   5 7.0   0.5 SW | 224 27.0   1.1 W | 262 1421 0.00 0.06 - 10.2   0.2 66.8   4.0 7   1 13.2   0.0
Suttcliffe South 2 9/3/26 71.1   0.5 56.5   8.8 65   15 25   4 15.6   3.9 WSW | 245 42.6   11.6 WSW | 251 1726 0.00 0.00 - 4.2   0.1 64.7   3.1 7   1 13.1   0.0
Lemmon Valley North 9/3/26 66.5   0.6 48.9   3.2 76   24 34   10 11.0   0.3 SSW | 199 32.4   1.5 SSW | 200 1139 0.00 0.02 - 2.0   0.0 60.4   3.1 7   1 13.2   0.0
Lemmon Valley NW 3 9/3/26 68.7   1.1 52.8   3.1 65   16 33   11 10.8   3.1 WSW | 240 32.2   6.1 SW | 230 1506 0.00 0.02 - 1.2   0.0 61.5   2.2 7   1 13.2   0.0
VC Highlands North 9/3/26 63.6   4.1 50.2   7.3 58   3 31   2 7.5   2.6 SW | 219 30.1   3.2 WSW | 257 1623 0.00 0.09 - 4.7   0.1 60.1   7.3 8   1 13.2   0.0
Upper Voltaire Cyn 9/3/26 64.1   0.1 53.5   4.1 52   3 26   1 13.6   3.7 SSW | 194 43.5   10.2 SSE | 164 2151 0.00 0.23 - 1.1   0.0 60.3   2.4 8   1 13.2   0.0
Yerington NW 9/3/26 75.4   3.5 49.5   5.5 54   6 21   4 12.5   1.6 SW | 229 41.7   9.7 W | 264 1629 0.00 0.20 - 7.2   0.0 65.7   2.2 9   0 13.2   0.0
Spanish Springs SW 9/3/26 70.4   2.0 56.4   3.5 59   17 27   7 9.4   0.8 SW | 228 35.2   4.2 SSW | 207 0113 0.00 0.05 - 1.4   0.0 65.0   2.7 7   0 13.2   0.0
Cosgrave 2 8/26/26 94.1   3.1 59.4   0.6 40   15 11   2 5.7   1.4 SSW | 205 26.1   5.0 WSW | 249 1345 0.00 0.00 - 4.0   0.1 82.4   4.3 5   1 13.2   0.0
Winnemucca-Grass Valley 2 9/3/26 74.4   6.5 48.9   5.5 63   2 22   5 6.9   0.2 WSW | 248 31.8   3.5 NNE | 28 1956 0.00 0.14 - 7.7   0.1 64.1   5.7 8   1 13.1   0.0
Winnemucca-Dutch Flat Rd 9/3/26 74.6   6.4 54.3   1.9 50   3 22   6 9.5   0.7 SW | 226 30.8   0.0 SSW | 203 1537 0.00 0.07 - 6.1   0.1 65.6   3.2 5   1 13.2   0.0
Paradise Valley 2 9/3/26 72.5   3.8 52.3   0.7 60   14 26   10 4.9   2.6 SSW | 195 24.2   1.7 SSE | 166 1438 0.00 0.08 - 12.5   0.3 62.5   1.8 6   2 13.2   0.0
Golconda 2 9/3/26 75.1   6.9 53.2   2.2 48   6 21   6 7.7   2.6 WNW | 303 25.7   11.5 SSE | 156 1220 0.00 0.11 - 1.9   0.0 66.9   3.2 7   1 13.1   0.0
Battle Mountain - South 9/3/26 78.6   8.3 52.1   9.7 46   12 16   1 7.5   0.9 WSW | 244 27.1   0.5 WSW | 255 1434 0.00 0.01 - 9.3   0.1 70.9   8.9 4   1 13.1   0.0
Geiger Summit 9/3/26 60.9   3.3 47.0   4.2 100   0 100   0 8.6   3.7 SSW | 208 35.2   14.7 SSW | 193 1446 0.00 0.13 - 6.1   0.0 55.8   5.9 8   1 13.2   0.0
Combs Canyon 3 9/3/26 69.7   1.8 54.2   2.0 45   2 28   4 7.8   0.1 SSW | 210 28.9   1.7 SSE | 164 1051 0.00 0.11 - 1.0   0.0 63.6   1.9 6   1 13.2   0.0
Clear Creek 9/3/26 64.9   0.3 53.2   3.2 50   2 26   1 8.8   1.8 S | 179 31.2   7.6 SE | 140 1302 0.00 0.23 - 3.4   0.0 59.8   0.4 8   0 13.1   0.0
Eastlake 2 9/3/26 67.0   0.1 54.6   2.1 52   0 28   3 8.0   1.6 SSE | 168 29.3   0.7 SSE | 147 2102 0.00 0.11 - 3.4   0.0 62.1   1.4 7   1 13.3   0.0
Lovelock-Colado 2 9/3/26 77.4   5.9 51.3   5.6 65   18 20   1 6.5   0.9 SW | 220 25.0   4.0 SSW | 193 1521 0.00 0.06 - - 66.6   6.1 6   1 13.2   0.0
Spanish Springs NW 9/3/26 68.6   1.5 57.2   4.0 55   11 28   6 7.3   0.5 SW | 225 30.9   7.1 SSW | 206 1517 0.00 0.04 - 12.3   0.2 64.4   1.9 5   1 13.1   0.0
Battle Mountain NW 9/3/26 78.4   9.1 52.3   3.5 46   12 17   1 7.7   0.2 SW | 231 34.2   5.6 S | 172 1419 0.00 0.00 - 8.7   0.1 69.3   5.5 4   1 13.2   0.0
Austin 2 9/3/26 75.0   6.5 36.8   0.5 55   8 16   2 5.9   0.9 SW | 236 37.1   10.7 WSW | 243 1536 0.00 0.24 - 2.4   0.1 61.3   5.2 6   0 13.2   0.0
Elko-Osino 9/3/26 78.6   7.3 52.1   0.2 41   10 15   1 7.0   1.3 SW | 224 27.3   0.8 WSW | 243 1311 0.00 0.00 - 1.4   0.0 68.5   4.5 6   0 13.2   0.0
Elko-Bill Fishpond 2 9/3/26 76.8   7.0 51.7   0.5 39   8 15   0 6.7   0.1 SW | 218 27.4   7.1 W | 259 1250 0.00 0.00 - 3.5   0.0 67.4   5.1 6   0 13.2   0.0
Spring Creek SE 2 9/3/26 77.2   6.5 51.4   3.2 44   14 15   1 7.5   1.6 SSW | 207 29.4   0.4 SSE | 166 1336 0.00 0.00 - 0.2   0.0 65.3   4.4 6   0 13.3   0.0
Spring Creek NW 9/3/26 76.7   6.6 51.7   1.2 41   12 16   2 7.3   0.1 SW | 230 24.5   1.7 S | 190 1303 0.00 0.00 - 2.2   0.0 68.0   4.2 5   0 13.2   0.0
Elko-Moleen 9/3/26 79.2   7.9 47.3   4.5 45   5 15   1 5.9   1.2 W | 265 25.5   1.0 W | 262 1220 0.00 0.00 - 6.2   0.1 67.6   3.8 6   0 13.2   0.0
Elko-West 9/3/26 79.4   8.0 45.4   6.1 50   13 15   1 6.1   1.2 WSW | 239 29.7   5.6 SW | 228 1534 0.00 0.00 - 33.1 65.7   3.9 5   0 13.2   0.1
Elko-Adobe Creek 9/3/26 70.6   7.7 48.4   2.8 46   13 19   1 9.1   0.9 SW | 236 34.4   3.2 SSW | 203 1259 0.00 0.00 - 18.5   0.1 63.3   6.1 6   1 13.2   0.0
Tuscarora SW 9/3/26 72.7   8.2 47.1   4.3 60   25 20   1 7.9   0.4 SW | 217 31.0   2.9 SSW | 192 1356 0.00 0.00 - 6.8   0.1 61.5   5.4 5   1 13.2   0.1
Elko-Monument Peak 9/3/26 72.4   6.6 44.2   6.9 44   9 18   2 6.9   0.1 SSW | 204 29.4   2.5 S | 179 1300 0.00 0.00 - 3.8   0.1 61.6   5.4 5   1 13.2   0.1
Wild Horse 9/3/26 69.6   7.5 47.7   0.8 53   9 21   4 8.9   1.8 SSW | 210 29.7   4.6 SW | 230 1545 0.00 0.00 - 4.5   0.1 61.1   4.2 6   1 13.1   0.7
Max   101.6 77.8 100 100 23.6 - 50.6 - - 0.04 - - 43.2 91.5 15 13.3
Avg   - - - - 8.2 - - - - - - - 7.0 61.8 6 -
Min   50.7 -2.1 21 3 1.0 - 13.2 - - 0.00 - - 0.2 -17.8 0 9.0

Fosberg 6Hr Max

Map

Hourly Data

Fosberg 6Hr Max

Map

Hourly Data